Navitec — VRMR3 — position and weather

sailwx.info

Track history (hours):
 
Tides and Currents Weather Stations Pressure Air Temp Water Temp Dewpoint Dewpoint Depression Visibility Wind Speed Wind Dir Waves Ship Positions

Navitec

Last reported at 2018-Jan-18 08:05 UTC. Time now 2018-Feb-17 23:53 UTC.
Position N 23°51' E 118°21'.
Warning: this ship's position is 30 days out of date.

Length 199 m; draft 10.9 m.

Type: Cargo ship. MMSI: 477219500.

Date/timePositionNaut miles runAvg speedWind from/ knotsBaromVisibWave heightAir tempDewpointWater temp
2018-Jan-18 08:05N 23°51' E 118°21'214.0
2018-Jan-18 07:58N 23°52' E 118°22'714.4
2018-Jan-18 07:29N 23°56' E 118°28'714.5
2018-Jan-18 06:59N 24°01' E 118°34'814.6
2018-Jan-18 06:26N 24°07' E 118°40'1014.7
2018-Jan-18 05:45N 24°14' E 118°48'  
2018-Jan-09 00:02N 23°57' E 118°28'0 7.6
2018-Jan-09 00:00N 23°57' E 118°28'5 8.3
2018-Jan-08 23:23N 23°54' E 118°24'  
Track history (hours):
 
Tides and Currents Weather Stations Pressure Air Temp Water Temp Dewpoint Dewpoint Depression Visibility Wind Speed Wind Dir Waves Ship Positions

Navitec

Last reported at 2018-Jan-18 08:05 UTC. Time now 2018-Feb-17 23:53 UTC.
Position N 23°51' E 118°21'.
Warning: this ship's position is 30 days out of date.

Length 199 m; draft 10.9 m.

Type: Cargo ship. MMSI: 477219500.

Date/timePositionNaut miles runAvg speedWind from/ knotsBaromVisibWave heightAir tempDewpointWater temp
2018-Jan-18 08:05N 23°51' E 118°21'214.0
2018-Jan-18 07:58N 23°52' E 118°22'714.4
2018-Jan-18 07:29N 23°56' E 118°28'714.5
2018-Jan-18 06:59N 24°01' E 118°34'814.6
2018-Jan-18 06:26N 24°07' E 118°40'1014.7
2018-Jan-18 05:45N 24°14' E 118°48'  
2018-Jan-09 00:02N 23°57' E 118°28'0 7.6
2018-Jan-09 00:00N 23°57' E 118°28'5 8.3
2018-Jan-08 23:23N 23°54' E 118°24'  

Dump ship's entire track history